createdAt,value
2023-04-18T18:11:48.631Z,19.0801
2023-04-18T18:12:51.151Z,19.0842
2023-04-18T18:43:53.371Z,19.4406
2023-04-18T18:44:55.966Z,19.3486
2023-04-18T18:47:23.166Z,17.6646
2023-04-18T18:48:25.943Z,17.5105
2023-04-18T18:49:28.319Z,17.2156
2023-04-18T18:50:30.966Z,16.5969
2023-04-18T18:51:33.519Z,15.7935
2023-04-18T18:52:36.109Z,15.5643
2023-04-18T18:53:40.370Z,15.6469
2023-04-18T18:54:41.634Z,15.5285
2023-04-18T18:55:43.850Z,14.9431
2023-04-18T18:56:46.466Z,15.0237
2023-04-18T18:57:49.037Z,14.6344
2023-04-18T18:58:51.639Z,14.2702
2023-04-18T18:59:55.858Z,13.9954
2023-04-18T19:00:56.841Z,13.9828
2023-04-18T19:01:59.509Z,13.5967
2023-04-18T19:03:02.185Z,13.1686
2023-04-18T19:04:04.881Z,13.0778
2023-04-18T19:05:07.246Z,12.8358
2023-04-18T19:06:09.815Z,12.6849
2023-04-18T19:07:12.430Z,12.4706
2023-04-18T19:08:15.030Z,12.3186
2023-04-18T19:09:17.639Z,12.3196
2023-04-18T19:10:20.211Z,12.2171
2023-04-18T19:11:22.832Z,12.1212
2023-04-18T19:12:25.414Z,12.1003
2023-04-18T19:13:28.452Z,12.0590
2023-04-18T19:14:30.637Z,12.0349
2023-04-18T19:15:33.824Z,12.1066
2023-04-18T19:16:35.904Z,12.0483
2023-04-18T19:17:38.470Z,11.9672
2023-04-18T19:18:41.023Z,11.9713
2023-04-18T19:19:43.648Z,11.9731
2023-04-18T19:20:46.218Z,11.9641
2023-04-18T19:21:48.850Z,12.0169
2023-04-18T19:22:51.421Z,12.0257
2023-04-18T19:23:54.045Z,11.9791
2023-04-18T19:24:56.625Z,12.0520
2023-04-18T19:25:59.252Z,11.9172
2023-04-18T19:27:01.824Z,11.9404
2023-04-18T19:28:04.444Z,11.8788
2023-04-18T19:29:07.016Z,11.8799
2023-04-18T19:30:09.632Z,11.8562
2023-04-18T19:31:12.220Z,11.8369
2023-04-18T19:32:14.833Z,11.8665
2023-04-18T19:33:17.437Z,11.7979
2023-04-18T19:34:20.318Z,11.7882
2023-04-18T19:35:22.636Z,11.7743
2023-04-18T19:36:25.380Z,11.6746
2023-04-18T19:37:27.829Z,11.6736
2023-04-18T19:38:30.447Z,11.6675
2023-04-18T19:39:33.030Z,11.6482
2023-04-18T19:40:35.662Z,11.6397
2023-04-18T19:41:38.226Z,11.6099
2023-04-18T19:42:40.844Z,11.5884
2023-04-18T19:43:43.424Z,11.5814
2023-04-18T19:44:46.056Z,11.5756
2023-04-18T19:45:48.681Z,11.5734
2023-04-18T19:46:51.259Z,11.5231
2023-04-18T19:47:53.881Z,11.5013
2023-04-18T19:48:56.469Z,11.5033
2023-04-18T19:49:59.043Z,11.5424
2023-04-18T19:51:01.733Z,11.5415
2023-04-18T19:52:04.292Z,11.5672
2023-04-18T19:53:06.885Z,11.5454
2023-04-18T19:54:09.483Z,11.5512
2023-04-18T19:55:12.095Z,11.5910
2023-04-18T19:56:14.658Z,11.5157
2023-04-18T19:57:17.295Z,11.4857
2023-04-18T19:58:19.861Z,11.5040
